createdAt,value
2023-04-07T00:00:37.314Z,7
2023-04-07T00:03:10.815Z,6.9
2023-04-07T00:05:43.039Z,7
2023-04-07T00:08:15.164Z,6.9
2023-04-07T00:10:45.955Z,6.8
2023-04-07T00:13:15.155Z,6.8
2023-04-07T00:15:44.384Z,6.9
2023-04-07T00:18:14.769Z,6.9
2023-04-07T00:20:46.715Z,6.9
2023-04-07T00:23:17.424Z,6.9
2023-04-07T00:25:48.229Z,6.8
2023-04-07T00:28:17.618Z,6.8
2023-04-07T00:30:47.229Z,6.8
2023-04-07T00:33:18.154Z,6.7
2023-04-07T00:35:48.741Z,6.6
2023-04-07T00:38:19.388Z,6.8
2023-04-07T00:40:49.069Z,6.7
2023-04-07T00:43:19.211Z,6.8
2023-04-07T00:45:51.268Z,6.8
2023-04-07T00:48:20.372Z,6.7
2023-04-07T00:50:51.619Z,6.5
2023-04-07T00:53:22.366Z,6.6
2023-04-07T00:55:53.064Z,6.4
2023-04-07T00:58:23.564Z,6.7
2023-04-07T01:00:54.350Z,6.7
2023-04-07T01:03:25.056Z,6.7
2023-04-07T01:05:55.418Z,6.7
2023-04-07T01:08:25.895Z,6.7
2023-04-07T01:10:56.514Z,6.6
2023-04-07T01:13:27.524Z,6.7
2023-04-07T01:15:56.438Z,6.7
2023-04-07T01:18:25.366Z,6.7
2023-04-07T01:20:54.419Z,6.6
2023-04-07T01:23:27.385Z,6.6
2023-04-07T01:26:00.259Z,6.7
2023-04-07T01:28:31.267Z,6.6
2023-04-07T01:31:02.427Z,6.7
2023-04-07T01:33:36.008Z,6.6
2023-04-07T01:36:06.819Z,6.5
2023-04-07T01:38:37.753Z,6.6
2023-04-07T01:41:07.966Z,6.6
2023-04-07T01:43:38.838Z,6.6
2023-04-07T01:46:09.483Z,6.6
2023-04-07T01:48:39.736Z,6.6
2023-04-07T01:51:12.606Z,6.5
2023-04-07T01:53:44.254Z,6.6
2023-04-07T01:56:14.974Z,6.5
2023-04-07T01:58:47.203Z,6.6
2023-04-07T02:01:17.251Z,6.5
2023-04-07T02:03:48.329Z,6.5
2023-04-07T02:06:20.871Z,6.6
2023-04-07T02:08:51.791Z,6.5
2023-04-07T02:11:23.162Z,6.4
2023-04-07T02:13:53.892Z,6.5
2023-04-07T02:16:24.856Z,6.5
2023-04-07T02:18:57.120Z,6.4
2023-04-07T02:21:28.036Z,6.6
2023-04-07T02:24:00.209Z,6.5
2023-04-07T02:26:31.252Z,6.5
2023-04-07T02:29:02.489Z,6.6
2023-04-07T02:31:33.368Z,6.6
2023-04-07T02:34:05.170Z,6.7
2023-04-07T02:36:36.192Z,6.7
2023-04-07T02:39:07.791Z,6.7
2023-04-07T02:41:38.556Z,6.7
2023-04-07T02:44:09.282Z,6.7
2023-04-07T02:46:40.218Z,6.7
2023-04-07T02:49:10.584Z,6.7
2023-04-07T02:51:39.534Z,6.6
2023-04-07T02:54:10.363Z,6.7
2023-04-07T02:56:41.166Z,6.6
2023-04-07T02:59:11.779Z,6.6
2023-04-07T03:01:42.831Z,6.6
2023-04-07T03:04:13.648Z,6.6
2023-04-07T03:06:44.457Z,6.5
2023-04-07T03:09:15.359Z,6.6
2023-04-07T03:11:46.285Z,6.5
2023-04-07T03:14:18.711Z,6.7
2023-04-07T03:16:50.047Z,6.8
2023-04-07T03:19:20.527Z,6.5
2023-04-07T03:21:50.708Z,6.5
2023-04-07T03:24:21.010Z,6.5
2023-04-07T03:26:51.821Z,6.5
2023-04-07T03:29:20.740Z,6.5
2023-04-07T03:31:52.454Z,6.5
2023-04-07T03:34:21.653Z,6.5
2023-04-07T03:36:52.382Z,6.5
2023-04-07T03:39:23.237Z,6.5
2023-04-07T03:41:53.637Z,6.4
2023-04-07T03:44:24.237Z,6.5
2023-04-07T03:46:55.169Z,6.5
2023-04-07T03:49:26.053Z,6.5
2023-04-07T03:51:56.892Z,6.6
2023-04-07T03:54:27.820Z,6.4
2023-04-07T03:56:58.692Z,6.5
2023-04-07T03:59:29.450Z,6.4
2023-04-07T04:02:01.735Z,6.5
2023-04-07T04:04:32.680Z,6.5
2023-04-07T04:07:02.045Z,6.4
2023-04-07T04:09:31.990Z,6.4
2023-04-07T04:12:02.592Z,6.3
2023-04-07T04:14:33.304Z,6.3
2023-04-07T04:17:02.435Z,6.3
2023-04-07T04:19:34.018Z,6.3
2023-04-07T04:22:04.844Z,6.4
2023-04-07T04:24:36.287Z,6.4
2023-04-07T04:27:07.359Z,6.3
2023-04-07T04:29:38.242Z,6.4
2023-04-07T04:32:06.643Z,6.4
2023-04-07T04:34:38.070Z,6.3
2023-04-07T04:37:09.055Z,6.1
2023-04-07T04:39:40.246Z,6.1
2023-04-07T04:42:09.524Z,6.3
2023-04-07T04:44:40.460Z,6.3
2023-04-07T04:47:12.337Z,6.4
2023-04-07T04:49:44.785Z,6.3
2023-04-07T04:52:15.582Z,6.4
2023-04-07T04:54:46.616Z,6.3
2023-04-07T04:57:15.491Z,6.3
2023-04-07T04:59:44.780Z,6.4
2023-04-07T05:02:15.782Z,6.4
2023-04-07T05:04:46.547Z,6.5
2023-04-07T05:07:17.872Z,6.4
2023-04-07T05:09:48.790Z,6.4
2023-04-07T05:12:19.376Z,6.4
2023-04-07T05:14:52.995Z,6.3
2023-04-07T05:17:22.392Z,6.2
2023-04-07T05:19:53.072Z,6
2023-04-07T05:22:25.808Z,6.2
2023-04-07T05:24:57.021Z,6.1
2023-04-07T05:27:29.056Z,6.3
2023-04-07T05:29:58.863Z,6.3
2023-04-07T05:32:32.567Z,6.1
2023-04-07T05:35:03.926Z,6.2
2023-04-07T05:37:35.580Z,6.3
2023-04-07T05:40:07.005Z,6.4
2023-04-07T05:42:37.532Z,6.3
2023-04-07T05:45:07.814Z,6.4
2023-04-07T05:47:39.209Z,6.3
2023-04-07T05:50:08.413Z,6.4
2023-04-07T05:52:38.988Z,6.3
2023-04-07T05:55:09.708Z,6.3
2023-04-07T05:57:40.201Z,6.4
2023-04-07T06:00:11.324Z,6.4
2023-04-07T06:02:42.214Z,6.4
2023-04-07T06:05:13.309Z,6.4
2023-04-07T06:07:44.205Z,6.3
2023-04-07T06:10:16.263Z,6.4
2023-04-07T06:12:47.034Z,6.4
2023-04-07T06:15:17.850Z,6.5
2023-04-07T06:17:48.858Z,6.3
2023-04-07T06:20:19.865Z,6.3
2023-04-07T06:22:50.151Z,6.3
2023-04-07T06:25:21.871Z,6.3
2023-04-07T06:27:52.455Z,6.4
2023-04-07T06:30:21.792Z,6.3
2023-04-07T06:32:52.355Z,6.5
2023-04-07T06:35:22.827Z,6.4
2023-04-07T06:37:53.007Z,6.4
2023-04-07T06:40:23.748Z,6.5
2023-04-07T06:42:54.625Z,6.5
2023-04-07T06:45:24.974Z,6.5
2023-04-07T06:47:56.031Z,6.6
2023-04-07T06:50:26.412Z,6.6
2023-04-07T06:52:57.130Z,6.6
2023-04-07T06:55:26.049Z,6.5
2023-04-07T06:57:56.214Z,6.6
2023-04-07T07:00:24.961Z,6.6
2023-04-07T07:02:55.904Z,6.5
2023-04-07T07:05:26.291Z,6.6
2023-04-07T07:07:55.627Z,6.7
2023-04-07T07:10:24.343Z,6.6
2023-04-07T07:12:55.755Z,6.7
2023-04-07T07:15:27.069Z,6.8
2023-04-07T07:17:57.174Z,6.8
2023-04-07T07:20:28.231Z,6.8
2023-04-07T07:23:04.608Z,6.8
2023-04-07T07:25:33.292Z,6.8
2023-04-07T07:28:05.118Z,6.9
2023-04-07T07:30:36.788Z,6.8
2023-04-07T07:33:07.902Z,6.8
2023-04-07T07:35:38.789Z,6.9
2023-04-07T07:38:10.616Z,7
2023-04-07T07:40:40.933Z,7
2023-04-07T07:43:11.204Z,7
2023-04-07T07:45:41.563Z,6.9
2023-04-07T07:48:12.419Z,6.8
2023-04-07T07:50:42.538Z,6.9
2023-04-07T07:53:11.466Z,6.9
2023-04-07T07:55:42.669Z,6.9
2023-04-07T07:58:11.716Z,6.9
2023-04-07T08:00:42.350Z,6.9
2023-04-07T08:03:10.993Z,6.8
2023-04-07T08:05:42.598Z,6.9
2023-04-07T08:08:13.383Z,7
2023-04-07T08:10:43.912Z,7.1
2023-04-07T08:13:15.312Z,7.1
2023-04-07T08:15:44.423Z,7.1
2023-04-07T08:18:14.746Z,7.1
2023-04-07T08:20:46.152Z,7.2
2023-04-07T08:23:14.971Z,7.2
2023-04-07T08:25:44.142Z,7.3
2023-04-07T08:28:14.522Z,7.3
2023-04-07T08:30:47.117Z,7.3
2023-04-07T08:33:17.218Z,7.3
2023-04-07T08:35:47.868Z,7.4
2023-04-07T08:38:19.646Z,7.3
2023-04-07T08:40:48.346Z,7.3
2023-04-07T08:43:22.407Z,7.4
2023-04-07T08:45:53.493Z,7.4
2023-04-07T08:48:24.352Z,7.4
2023-04-07T08:50:54.814Z,7.3
2023-04-07T08:53:26.964Z,7.3
2023-04-07T08:56:00.977Z,7.2
2023-04-07T08:58:29.450Z,7.3
2023-04-07T09:01:01.016Z,7.1
2023-04-07T09:03:31.776Z,7.2
2023-04-07T09:06:02.548Z,7.3
2023-04-07T09:08:32.783Z,7.4
2023-04-07T09:11:01.500Z,7.3
2023-04-07T09:13:38.584Z,7.5
2023-04-07T09:16:07.371Z,7.4
2023-04-07T09:18:37.703Z,7.4
2023-04-07T09:21:08.116Z,7.4
2023-04-07T09:23:39.550Z,7.3
2023-04-07T09:26:10.431Z,7.4
2023-04-07T09:28:40.550Z,7.3
2023-04-07T09:31:10.846Z,7.2
2023-04-07T09:33:42.727Z,7.3
2023-04-07T09:36:11.735Z,7.3
2023-04-07T09:38:42.877Z,7.3
2023-04-07T09:41:13.428Z,7.3
2023-04-07T09:43:43.978Z,7.4
2023-04-07T09:46:14.748Z,7.5
2023-04-07T09:48:45.308Z,7.6
2023-04-07T09:51:16.807Z,7.6
2023-04-07T09:53:48.334Z,7.5
2023-04-07T09:56:18.680Z,7.5
2023-04-07T09:58:54.837Z,7.4
2023-04-07T10:01:25.076Z,7.4
2023-04-07T10:03:57.350Z,7.5
2023-04-07T10:06:27.641Z,7.5
2023-04-07T10:08:59.166Z,7.5
2023-04-07T10:14:11.185Z,7.6
2023-04-07T10:16:46.054Z,7.4
2023-04-07T10:19:17.454Z,7.5
2023-04-07T10:21:49.916Z,7.6
2023-04-07T10:24:21.778Z,7.4
2023-04-07T10:26:51.805Z,7.5
2023-04-07T10:29:21.986Z,7.6
2023-04-07T10:31:52.313Z,7.7
2023-04-07T10:34:29.707Z,7.8
2023-04-07T10:36:59.594Z,7.8
2023-04-07T10:39:29.751Z,7.8
2023-04-07T10:41:58.393Z,7.9
2023-04-07T10:44:28.521Z,7.9
2023-04-07T10:46:59.053Z,8
2023-04-07T10:49:29.464Z,8.1
2023-04-07T10:52:00.824Z,8.1
2023-04-07T10:54:31.356Z,8
2023-04-07T10:57:03.001Z,7.9
2023-04-07T10:59:35.496Z,7.9
2023-04-07T11:02:05.784Z,7.9
2023-04-07T11:04:44.317Z,8.1
2023-04-07T11:07:17.968Z,8.1
2023-04-07T11:09:49.887Z,8
2023-04-07T11:12:20.101Z,7.9
2023-04-07T11:14:50.286Z,7.8
2023-04-07T11:17:21.086Z,7.9
2023-04-07T11:19:51.600Z,7.8
2023-04-07T11:24:50.705Z,7.9
2023-04-07T11:27:21.127Z,7.8
2023-04-07T11:29:51.251Z,7.9
2023-04-07T11:34:56.993Z,8
2023-04-07T11:37:27.572Z,8
2023-04-07T11:39:57.846Z,8
2023-04-07T11:42:28.429Z,7.8
2023-04-07T11:44:59.378Z,7.9
2023-04-07T11:47:29.614Z,7.9
2023-04-07T11:49:59.715Z,8
2023-04-07T11:52:31.011Z,8
2023-04-07T11:55:02.509Z,8.1
2023-04-07T11:57:33.417Z,8.1
2023-04-07T12:00:04.294Z,8.2
2023-04-07T12:02:34.791Z,8.2
2023-04-07T12:05:05.254Z,7.9
2023-04-07T12:07:37.649Z,8.2
2023-04-07T12:10:07.955Z,8.3
2023-04-07T12:12:40.312Z,8.4
2023-04-07T12:15:12.424Z,8.3
2023-04-07T12:17:42.995Z,8.3
2023-04-07T12:20:17.084Z,8.2
2023-04-07T12:22:47.823Z,8.1
2023-04-07T12:25:19.316Z,8.1
2023-04-07T12:27:54.999Z,8.2
2023-04-07T12:30:25.308Z,8.2
2023-04-07T12:32:55.766Z,8.1
2023-04-07T12:35:24.881Z,8.1
2023-04-07T12:37:55.506Z,8.1
2023-04-07T12:40:26.028Z,8.1
2023-04-07T12:42:56.621Z,8
2023-04-07T12:45:27.358Z,8.1
2023-04-07T12:47:58.198Z,7.9
2023-04-07T12:50:28.135Z,8
2023-04-07T12:52:58.840Z,7.9
2023-04-07T12:55:29.230Z,7.9
2023-04-07T12:57:59.342Z,8
2023-04-07T13:00:30.119Z,8
2023-04-07T13:03:01.198Z,8
2023-04-07T13:05:31.450Z,8
2023-04-07T13:08:00.218Z,8.1
2023-04-07T13:10:31.617Z,8.1
2023-04-07T13:13:02.438Z,8.2
2023-04-07T13:15:32.587Z,8.1
2023-04-07T13:18:03.372Z,8.1
2023-04-07T13:20:33.920Z,8.1
2023-04-07T13:23:08.019Z,8
2023-04-07T13:25:34.785Z,8.1
2023-04-07T13:28:05.226Z,8.1
2023-04-07T13:30:35.727Z,8.1
2023-04-07T13:33:06.694Z,8.1
2023-04-07T13:35:36.950Z,8.1
2023-04-07T13:38:07.262Z,8.2
2023-04-07T13:40:37.769Z,8.2
2023-04-07T13:43:09.960Z,8.3
2023-04-07T13:45:41.777Z,8.4
2023-04-07T13:48:11.921Z,8.4
2023-04-07T13:50:42.577Z,8.3
2023-04-07T13:53:16.470Z,8.3
2023-04-07T13:55:45.243Z,8.4
2023-04-07T13:58:15.781Z,8.5
2023-04-07T14:00:53.047Z,8.6
2023-04-07T14:03:22.496Z,8.6
2023-04-07T14:05:53.264Z,8.6
2023-04-07T14:08:23.756Z,8.6
2023-04-07T14:10:55.347Z,8.5
2023-04-07T14:13:26.096Z,8.6
2023-04-07T14:15:58.220Z,8.5
2023-04-07T14:18:28.981Z,8.5
2023-04-07T14:20:59.612Z,8.4
2023-04-07T14:23:36.425Z,8.5
2023-04-07T14:25:58.434Z,8.4
2023-04-07T14:28:28.699Z,8.5
2023-04-07T14:30:58.895Z,8.5
2023-04-07T14:33:31.671Z,8.6
2023-04-07T14:36:02.346Z,8.5
2023-04-07T14:38:40.732Z,8.5
2023-04-07T14:41:14.396Z,8.5
2023-04-07T14:43:47.735Z,8.5
2023-04-07T14:46:22.422Z,8.5
2023-04-07T14:48:54.826Z,8.5
2023-04-07T14:51:25.665Z,8.5
2023-04-07T14:53:56.504Z,8.5
2023-04-07T14:56:26.554Z,8.5
2023-04-07T14:58:56.592Z,8.4
2023-04-07T15:01:27.379Z,8.4
2023-04-07T15:04:07.857Z,8.4
2023-04-07T15:06:41.956Z,8.4
2023-04-07T15:09:12.847Z,8.4
2023-04-07T15:11:42.094Z,8.4
2023-04-07T15:14:12.409Z,8.3
2023-04-07T15:16:42.786Z,8.4
2023-04-07T15:19:13.148Z,8.3
2023-04-07T15:21:43.604Z,8.1
2023-04-07T15:24:15.989Z,8.3
2023-04-07T15:26:44.014Z,8.2
2023-04-07T15:29:14.327Z,8.2
2023-04-07T15:31:44.558Z,8.2
2023-04-07T15:34:13.581Z,8.1
2023-04-07T15:36:44.039Z,8.1
2023-04-07T15:39:16.006Z,8.1
2023-04-07T15:41:47.300Z,8.1
2023-04-07T15:44:20.975Z,8.1
2023-04-07T15:46:51.174Z,8.2
2023-04-07T15:49:22.220Z,8.2
2023-04-07T15:51:55.290Z,8.2
2023-04-07T15:54:30.509Z,8.2
2023-04-07T15:59:37.456Z,8.4
2023-04-07T16:02:07.681Z,8.4
2023-04-07T16:04:37.274Z,8.2
2023-04-07T16:07:07.680Z,8.1
2023-04-07T16:09:37.870Z,8.2
2023-04-07T16:12:08.171Z,8.2
2023-04-07T16:14:39.981Z,8.1
2023-04-07T16:17:10.658Z,8.1
2023-04-07T16:19:41.789Z,8.2
2023-04-07T16:22:12.437Z,8
2023-04-07T16:24:41.534Z,8
2023-04-07T16:27:12.659Z,8
2023-04-07T16:29:42.948Z,7.9
2023-04-07T16:32:14.549Z,7.8
2023-04-07T16:34:44.891Z,7.9
2023-04-07T16:37:14.984Z,7.9
2023-04-07T16:39:45.385Z,7.8
2023-04-07T16:42:16.188Z,7.9
2023-04-07T16:44:46.810Z,7.9
2023-04-07T16:47:17.563Z,7.9
2023-04-07T16:49:52.954Z,7.9
2023-04-07T16:52:23.788Z,7.7
2023-04-07T16:54:54.534Z,7.9
2023-04-07T16:57:27.895Z,7.8
2023-04-07T17:00:02.201Z,7.7
2023-04-07T17:02:34.103Z,7.8
2023-04-07T17:05:12.633Z,7.8
2023-04-07T17:07:44.160Z,7.8
2023-04-07T17:10:18.925Z,7.9
2023-04-07T17:12:50.018Z,8
2023-04-07T17:15:21.379Z,7.8
2023-04-07T17:17:57.445Z,7.9
2023-04-07T17:20:31.233Z,8
2023-04-07T17:23:05.421Z,8
2023-04-07T17:25:37.762Z,8
2023-04-07T17:28:12.445Z,7.9
2023-04-07T17:30:52.746Z,8
2023-04-07T17:33:25.030Z,8
2023-04-07T17:35:56.378Z,8
2023-04-07T17:38:28.738Z,7.9
2023-04-07T17:41:01.314Z,8
2023-04-07T17:43:31.880Z,8
2023-04-07T17:46:02.788Z,8
2023-04-07T17:48:32.681Z,8
2023-04-07T17:51:07.909Z,8
2023-04-07T17:53:37.310Z,8
2023-04-07T17:56:07.402Z,8
2023-04-07T17:58:37.782Z,7.9
2023-04-07T18:01:13.249Z,7.9
2023-04-07T18:03:49.081Z,7.9
2023-04-07T18:06:21.734Z,7.9
2023-04-07T18:08:53.801Z,8
2023-04-07T18:11:27.780Z,7.9
2023-04-07T18:13:58.204Z,7.9
2023-04-07T18:16:28.887Z,7.9
2023-04-07T18:19:00.424Z,7.8
2023-04-07T18:21:34.784Z,8
2023-04-07T18:24:07.167Z,7.9
2023-04-07T18:26:39.841Z,7.9
2023-04-07T18:29:11.968Z,7.9
2023-04-07T18:31:47.172Z,7.9
2023-04-07T18:34:25.653Z,7.9
2023-04-07T18:36:55.333Z,7.9
2023-04-07T18:39:25.446Z,7.9
2023-04-07T18:41:55.875Z,7.9
2023-04-07T18:44:30.099Z,7.9
2023-04-07T18:47:00.385Z,7.9
2023-04-07T18:49:30.541Z,7.9
2023-04-07T18:51:59.413Z,7.9
2023-04-07T18:54:30.112Z,7.9
2023-04-07T18:57:00.648Z,7.9
2023-04-07T18:59:30.770Z,7.8
2023-04-07T19:02:02.150Z,7.8
2023-04-07T19:04:33.700Z,7.8
2023-04-07T19:07:04.226Z,7.8
2023-04-07T19:09:34.593Z,7.8
2023-04-07T19:12:05.127Z,7.8
2023-04-07T19:14:35.500Z,7.8
2023-04-07T19:17:06.683Z,7.8
2023-04-07T19:19:38.589Z,7.8
2023-04-07T19:22:13.146Z,7.8
2023-04-07T19:24:43.849Z,7.9
2023-04-07T19:27:21.480Z,7.8
2023-04-07T19:29:55.431Z,7.9
2023-04-07T19:32:29.084Z,7.8
2023-04-07T19:40:49.631Z,7.9
2023-04-07T19:43:21.511Z,7.9
2023-04-07T19:45:56.878Z,7.9
2023-04-07T19:48:27.508Z,7.8
2023-04-07T19:51:00.745Z,7.8
2023-04-07T19:53:32.336Z,7.8
2023-04-07T19:56:02.874Z,7.8
2023-04-07T19:58:36.356Z,7.8
2023-04-07T20:01:05.585Z,7.8
2023-04-07T20:03:36.288Z,7.7
2023-04-07T20:06:06.415Z,7.7
2023-04-07T20:08:37.440Z,7.8
2023-04-07T20:11:17.909Z,7.7
2023-04-07T20:13:52.672Z,7.8
2023-04-07T20:16:26.705Z,7.8
2023-04-07T20:19:00.421Z,7.7
2023-04-07T20:21:30.751Z,7.8
2023-04-07T20:24:00.706Z,7.7
2023-04-07T20:26:31.437Z,7.7
2023-04-07T20:29:02.076Z,7.7
2023-04-07T20:31:32.408Z,7.7
2023-04-07T20:34:02.492Z,7.7
2023-04-07T20:36:39.057Z,7.7
2023-04-07T20:39:14.404Z,7.7
2023-04-07T20:41:46.167Z,7.8
2023-04-07T20:44:16.752Z,7.7
2023-04-07T20:46:47.212Z,7.7
2023-04-07T20:49:17.464Z,7.7
2023-04-07T20:51:47.809Z,7.7
2023-04-07T20:54:19.984Z,7.7
2023-04-07T20:56:52.895Z,7.7
2023-04-07T20:59:24.853Z,7.7
2023-04-07T21:02:03.575Z,7.7
2023-04-07T21:04:35.429Z,7.7
2023-04-07T21:07:12.526Z,7.7
2023-04-07T21:09:42.712Z,7.7
2023-04-07T21:12:16.216Z,7.7
2023-04-07T21:14:47.099Z,7.7
2023-04-07T21:17:18.500Z,7.7
2023-04-07T21:19:53.028Z,7.7
2023-04-07T21:22:23.880Z,7.7
2023-04-07T21:24:58.176Z,7.7
2023-04-07T21:27:28.489Z,7.6
2023-04-07T21:29:58.971Z,7.6
2023-04-07T21:32:29.761Z,7.4
2023-04-07T21:35:00.051Z,7.5
2023-04-07T21:37:30.230Z,7.4
2023-04-07T21:40:01.424Z,7.4
2023-04-07T21:42:31.904Z,7.4
2023-04-07T21:45:02.123Z,7.4
2023-04-07T21:47:32.544Z,7.3
2023-04-07T21:50:06.004Z,7.4
2023-04-07T21:55:12.521Z,7.5
2023-04-07T21:57:44.423Z,7.5
2023-04-07T22:00:14.788Z,7.4
2023-04-07T22:02:46.874Z,7.4
2023-04-07T22:05:17.318Z,7.4
2023-04-07T22:07:50.162Z,7.4
2023-04-07T22:10:22.481Z,7.3
2023-04-07T22:12:52.914Z,7.4
2023-04-07T22:15:23.573Z,7.4
2023-04-07T22:17:59.415Z,7.3
2023-04-07T22:20:31.421Z,7.3
2023-04-07T22:23:02.068Z,7.4
2023-04-07T22:25:32.622Z,7.4
2023-04-07T22:28:03.443Z,7.4
2023-04-07T22:30:35.296Z,7.4
2023-04-07T22:33:05.756Z,7.4
2023-04-07T22:35:39.171Z,7.4
2023-04-07T22:38:11.153Z,7.3
2023-04-07T22:40:42.680Z,7.4
2023-04-07T22:43:16.135Z,7.4
2023-04-07T22:45:46.872Z,7.4
2023-04-07T22:48:17.054Z,7.4
2023-04-07T22:50:47.358Z,7.5
2023-04-07T22:53:17.652Z,7.4
2023-04-07T22:55:52.402Z,7.5
2023-04-07T22:58:23.149Z,7.4
2023-04-07T23:01:02.802Z,7.4
2023-04-07T23:03:34.658Z,7.4
2023-04-07T23:06:06.916Z,7.4
2023-04-07T23:08:42.106Z,7.3
2023-04-07T23:11:12.973Z,7.3
2023-04-07T23:13:43.833Z,7.3
2023-04-07T23:16:22.233Z,7.3
2023-04-07T23:18:53.498Z,7.4
2023-04-07T23:21:27.102Z,7.4
2023-04-07T23:23:56.921Z,7.4
2023-04-07T23:26:27.666Z,7.3
2023-04-07T23:28:58.527Z,7.3
2023-04-07T23:31:29.336Z,7.4
2023-04-07T23:34:00.402Z,7.3
2023-04-07T23:36:31.340Z,7.3
2023-04-07T23:39:02.196Z,7.3
2023-04-07T23:41:32.766Z,7.3
2023-04-07T23:44:03.254Z,7.2
2023-04-07T23:46:34.501Z,7
2023-04-07T23:49:05.046Z,7.1
2023-04-07T23:51:34.929Z,7.1
2023-04-07T23:54:05.205Z,7.1
2023-04-07T23:56:40.864Z,7.1
2023-04-07T23:59:11.962Z,7.1
